Time;durP1;ratioP1;P1;durP2;ratioP2;P2;SDS_P1;SDS_P2;PMS_P1;PMS_P2;Temp;Humidity;BMP_temperature;BMP_pressure;BME280_temperature;BME280_humidity;BME280_pressure;Samples;Min_cycle;Max_cycle;Signal;HPM_P1;HPM_P2
2021/04/20 00:00:15;;;;;;;22.42;20.15;;;;;;;5.42;83.84;98984.36;1673692;85;21150;-60
2021/04/20 00:02:42;;;;;;;17.67;14.40;;;;;;;5.40;84.10;98982.27;1673783;84;21170;-60
2021/04/20 00:05:14;;;;;;;14.03;11.70;;;;;;;5.37;84.05;98982.38;1673791;85;21096;-60
2021/04/20 00:07:41;;;;;;;13.83;12.43;;;;;;;5.32;84.15;98973.08;1673847;85;21179;-60
2021/04/20 00:10:12;;;;;;;13.58;11.50;;;;;;;5.26;84.22;98975.38;1673868;85;22317;-61
2021/04/20 00:12:39;;;;;;;13.68;12.20;;;;;;;5.21;84.24;98969.48;1673852;85;21095;-61
2021/04/20 00:15:10;;;;;;;13.18;11.75;;;;;;;5.15;84.28;98967.10;1673782;85;21492;-61
2021/04/20 00:17:37;;;;;;;13.53;11.78;;;;;;;5.11;84.35;98964.20;1673919;84;21503;-60
2021/04/20 00:20:10;;;;;;;11.85;10.60;;;;;;;5.04;84.48;98958.36;1673846;85;21126;-60
2021/04/20 00:22:38;;;;;;;13.40;11.95;;;;;;;5.00;84.77;98959.32;1673978;85;22269;-60
2021/04/20 00:25:07;;;;;;;15.53;13.03;;;;;;;4.96;85.08;98951.30;1673744;84;21151;-60
2021/04/20 00:27:34;;;;;;;14.43;12.93;;;;;;;4.93;85.23;98946.66;1673864;85;21543;-60
2021/04/20 00:30:05;;;;;;;14.43;12.00;;;;;;;4.90;85.17;98950.17;1673853;84;21191;-60
2021/04/20 00:32:32;;;;;;;14.55;12.53;;;;;;;4.88;85.58;98945.94;1673816;85;21135;-61
2021/04/20 00:34:59;;;;;;;14.43;12.23;;;;;;;4.82;85.55;98941.78;1673800;85;21403;-61
2021/04/20 00:37:28;;;;;;;14.93;12.75;;;;;;;4.80;85.78;98940.53;1673686;85;21087;-61
2021/04/20 00:39:56;;;;;;;19.23;14.60;;;;;;;4.75;85.76;98941.13;1673444;84;21097;-61
2021/04/20 00:42:23;;;;;;;15.35;12.90;;;;;;;4.73;85.88;98934.31;1673243;84;21168;-61
2021/04/20 00:44:51;;;;;;;14.05;12.55;;;;;;;4.70;85.98;98936.97;1673309;84;21171;-61
2021/04/20 00:47:18;;;;;;;16.02;13.72;;;;;;;4.67;86.03;98928.02;1673381;85;22054;-61
2021/04/20 00:49:46;;;;;;;13.95;12.45;;;;;;;4.66;86.10;98925.05;1673202;85;21120;-61
2021/04/20 00:52:13;;;;;;;15.50;13.72;;;;;;;4.65;86.07;98925.93;1673335;85;21604;-61
2021/04/20 00:54:42;;;;;;;15.85;12.43;;;;;;;4.63;86.04;98917.39;1673271;85;21603;-61
2021/04/20 00:57:10;;;;;;;13.55;11.73;;;;;;;4.62;86.00;98920.41;1673296;85;21093;-61
2021/04/20 00:59:38;;;;;;;13.93;12.40;;;;;;;4.61;85.96;98913.56;1673349;84;22112;-61
2021/04/20 01:02:05;;;;;;;14.80;13.30;;;;;;;4.59;85.88;98914.52;1673200;84;21143;-61
2021/04/20 01:04:33;;;;;;;16.02;13.88;;;;;;;4.55;85.98;98911.62;1673202;84;21168;-60
2021/04/20 01:07:00;;;;;;;15.90;13.00;;;;;;;4.51;86.05;98906.98;1673377;84;21129;-60
2021/04/20 01:09:27;;;;;;;14.20;12.43;;;;;;;4.48;85.99;98902.75;1673447;85;21088;-59
2021/04/20 01:11:54;;;;;;;14.47;12.98;;;;;;;4.46;85.98;98903.67;1648609;85;21223;-59
2021/04/20 01:14:22;;;;;;;15.80;14.07;;;;;;;4.43;86.02;98909.75;1673453;85;21664;-61
2021/04/20 01:16:49;;;;;;;17.65;13.90;;;;;;;4.41;86.11;98909.38;1673396;85;21536;-61
2021/04/20 01:19:16;;;;;;;17.32;14.28;;;;;;;4.39;86.13;98911.17;1673395;84;21176;-60
2021/04/20 01:21:44;;;;;;;17.12;14.18;;;;;;;4.34;86.21;98910.00;1673370;84;21153;-60
2021/04/20 01:24:17;;;;;;;14.47;12.88;;;;;;;4.31;86.30;98907.94;1673422;85;21332;-60
2021/04/20 01:26:46;;;;;;;15.05;13.18;;;;;;;4.27;86.42;98904.59;1673378;85;21179;-60
2021/04/20 01:29:14;;;;;;;18.32;14.38;;;;;;;4.25;86.49;98900.36;1673375;85;21172;-60
2021/04/20 01:31:44;;;;;;;18.27;14.45;;;;;;;4.24;86.52;98897.38;1673361;84;21651;-60
2021/04/20 01:34:12;;;;;;;16.27;13.88;;;;;;;4.22;86.63;98896.13;1673436;85;21242;-60
2021/04/20 01:36:39;;;;;;;14.03;12.53;;;;;;;4.17;86.55;98889.42;1673439;85;21221;-60
2021/04/20 01:39:11;;;;;;;17.70;13.53;;;;;;;4.14;86.52;98885.20;1673327;85;21096;-60
2021/04/20 01:41:38;;;;;;;18.23;14.30;;;;;;;4.12;86.62;98884.38;1673405;84;21481;-60
2021/04/20 01:44:05;;;;;;;16.02;14.35;;;;;;;4.11;86.68;98879.68;1673352;85;21611;-60
2021/04/20 01:46:34;;;;;;;17.52;15.05;;;;;;;4.10;86.72;98887.00;1673405;84;21117;-60
2021/04/20 01:49:02;;;;;;;15.40;13.75;;;;;;;4.09;86.61;98885.74;1673398;85;21207;-60
2021/04/20 01:51:30;;;;;;;14.47;12.98;;;;;;;4.06;86.63;98881.52;1673355;85;21104;-60
2021/04/20 01:53:58;;;;;;;15.55;13.10;;;;;;;4.06;86.80;98884.09;1673410;85;21074;-61
2021/04/20 01:56:25;;;;;;;15.98;14.05;;;;;;;4.05;86.96;98879.82;1673379;85;21148;-61
2021/04/20 01:58:52;;;;;;;16.73;14.73;;;;;;;4.05;87.07;98880.27;1673394;84;21159;-60
2021/04/20 02:01:24;;;;;;;14.30;12.75;;;;;;;4.06;87.18;98877.66;1673339;85;21430;-60
2021/04/20 02:03:52;;;;;;;14.63;12.53;;;;;;;4.07;87.27;98874.20;1673356;85;21191;-60
2021/04/20 02:06:24;;;;;;;16.57;14.23;;;;;;;4.09;87.28;98872.44;1673357;84;21093;-60
2021/04/20 02:08:52;;;;;;;14.90;13.30;;;;;;;4.10;87.43;98874.13;1673528;84;21224;-60
2021/04/20 02:11:22;;;;;;;17.45;14.13;;;;;;;4.12;87.69;98873.66;1673376;85;21222;-60
2021/04/20 02:13:50;;;;;;;15.95;14.18;;;;;;;4.16;87.65;98867.99;1673397;85;21453;-60
2021/04/20 02:16:18;;;;;;;16.45;13.88;;;;;;;4.20;87.45;98866.19;1673309;85;21103;-60
2021/04/20 02:18:52;;;;;;;14.83;13.15;;;;;;;4.21;87.35;98861.41;1673333;85;21156;-60
2021/04/20 02:21:20;;;;;;;15.40;13.62;;;;;;;4.23;87.62;98867.38;1673310;85;21108;-60
2021/04/20 02:23:48;;;;;;;19.27;14.87;;;;;;;4.25;87.72;98865.61;1673336;85;21084;-60
2021/04/20 02:26:29;;;;;;;22.77;14.03;;;;;;;4.27;87.70;98867.70;1673337;85;21227;-60
2021/04/20 02:29:00;;;;;;;15.78;12.95;;;;;;;4.29;87.70;98867.22;1673329;85;21104;-61
2021/04/20 02:31:28;;;;;;;14.73;13.22;;;;;;;4.35;87.61;98865.34;1673209;84;21116;-61
2021/04/20 02:33:56;;;;;;;17.52;14.98;;;;;;;4.39;87.64;98860.53;1673353;85;21110;-61
2021/04/20 02:36:25;;;;;;;16.93;13.75;;;;;;;4.45;87.57;98862.92;1673352;84;21108;-61
2021/04/20 02:38:53;;;;;;;16.32;13.72;;;;;;;4.50;87.51;98855.92;1673335;85;21367;-61
2021/04/20 02:41:21;;;;;;;13.80;12.18;;;;;;;4.57;87.30;98855.77;1672504;84;21517;-61
2021/04/20 02:43:48;;;;;;;15.83;13.10;;;;;;;4.60;87.06;98851.35;1672384;85;21076;-61
2021/04/20 02:46:17;;;;;;;16.15;13.78;;;;;;;4.62;86.90;98847.01;1672412;84;22342;-61
2021/04/20 02:48:45;;;;;;;15.28;13.22;;;;;;;4.64;86.78;98850.39;1672428;84;21155;-61
2021/04/20 02:51:12;;;;;;;15.23;13.45;;;;;;;4.65;86.57;98849.95;1672357;85;21437;-61
2021/04/20 02:53:43;;;;;;;15.00;13.40;;;;;;;4.61;86.41;98850.47;1672345;84;21089;-61
2021/04/20 02:56:14;;;;;;;15.85;13.83;;;;;;;4.58;86.32;98849.29;1672391;85;21101;-61
2021/04/20 02:58:43;;;;;;;15.65;13.25;;;;;;;4.55;86.49;98845.51;1672380;84;21171;-61
2021/04/20 03:01:24;;;;;;;16.42;14.73;;;;;;;4.52;86.37;98855.03;1651290;85;21084;-61
2021/04/20 03:03:52;;;;;;;21.55;14.30;;;;;;;4.47;86.42;98850.84;1672382;85;21271;-62
2021/04/20 03:06:20;;;;;;;16.30;13.05;;;;;;;4.44;86.49;98845.78;1672368;85;21100;-61
2021/04/20 03:08:49;;;;;;;17.23;13.30;;;;;;;4.42;86.63;98839.82;1672365;85;21076;-60
2021/04/20 03:11:25;;;;;;;17.45;15.20;;;;;;;4.41;86.77;98838.57;1672354;84;21071;-60
2021/04/20 03:13:52;;;;;;;16.12;14.43;;;;;;;4.39;86.85;98839.93;1672403;85;21120;-60
2021/04/20 03:16:22;;;;;;;17.70;15.48;;;;;;;4.43;87.00;98839.38;1670983;85;22172;-60
2021/04/20 03:18:50;;;;;;;17.65;14.30;;;;;;;4.50;87.11;98836.61;1672313;85;21100;-60
2021/04/20 03:21:17;;;;;;;15.43;13.03;;;;;;;4.67;87.22;98833.56;1672273;85;21063;-60
2021/04/20 03:23:45;;;;;;;15.83;13.75;;;;;;;4.91;87.12;98837.19;1672336;84;21183;-60
2021/04/20 03:26:41;;;;;;;15.75;13.25;;;;;;;5.23;86.70;98837.97;1672298;85;21135;-60
2021/04/20 03:29:09;;;;;;;16.60;13.00;;;;;;;5.50;85.98;98837.98;1672426;85;21520;-60
2021/04/20 03:31:38;;;;;;;15.28;13.58;;;;;;;5.73;84.77;98837.70;1672292;84;21104;-60
2021/04/20 03:34:14;;;;;;;14.35;12.85;;;;;;;5.90;83.97;98830.30;1672368;85;21175;-61
2021/04/20 03:36:47;;;;;;;13.22;11.85;;;;;;;6.16;83.31;98828.14;1672330;85;21175;-60
2021/04/20 03:39:18;;;;;;;14.18;12.68;;;;;;;6.50;81.92;98823.94;1672122;85;21155;-60
2021/04/20 03:42:01;;;;;;;14.40;12.05;;;;;;;6.79;80.81;98828.08;1672941;85;22281;-61
2021/04/20 03:44:55;;;;;;;14.30;12.58;;;;;;;7.12;79.56;98832.00;1673396;85;21092;-61
2021/04/20 03:47:27;;;;;;;13.43;12.03;;;;;;;7.50;78.09;98834.41;1649797;85;21114;-61
2021/04/20 03:49:56;;;;;;;13.35;12.00;;;;;;;7.93;76.39;98832.70;1668235;85;21186;-60
2021/04/20 03:52:31;;;;;;;14.40;12.90;;;;;;;8.26;75.44;98834.33;1673296;85;21144;-60
2021/04/20 03:54:58;;;;;;;14.28;12.37;;;;;;;8.53;73.54;98830.60;1643122;87;21483;-60
2021/04/20 03:57:28;;;;;;;12.47;11.08;;;;;;;8.70;72.29;98837.64;1672743;84;21103;-61
2021/04/20 03:59:57;;;;;;;13.80;12.40;;;;;;;8.92;71.58;98841.42;1643147;87;21156;-60
2021/04/20 04:02:24;;;;;;;14.28;12.33;;;;;;;9.06;70.78;98844.23;1673284;85;21184;-60
2021/04/20 04:04:51;;;;;;;14.18;12.78;;;;;;;9.24;70.29;98844.69;1673314;85;21101;-60
2021/04/20 04:07:19;;;;;;;14.20;12.75;;;;;;;9.51;69.15;98842.57;1673298;84;21445;-60
2021/04/20 04:09:46;;;;;;;12.18;11.03;;;;;;;9.77;68.13;98842.64;1643049;87;21112;-60
2021/04/20 04:12:14;;;;;;;13.32;11.90;;;;;;;10.01;66.37;98837.53;1673255;85;21164;-60
2021/04/20 04:14:42;;;;;;;13.70;12.30;;;;;;;10.11;66.10;98841.83;1673272;85;21148;-61
2021/04/20 04:17:12;;;;;;;14.07;12.25;;;;;;;10.22;65.67;98840.86;1673288;84;21083;-61
2021/04/20 04:19:45;;;;;;;13.50;11.85;;;;;;;10.43;65.28;98843.30;1619473;87;21394;-61
2021/04/20 04:22:14;;;;;;;16.48;12.47;;;;;;;10.64;64.73;98828.73;1673520;85;21196;-62
2021/04/20 04:24:58;;;;;;;15.00;13.50;;;;;;;10.81;63.92;98827.84;1643128;86;21128;-62
2021/04/20 04:27:28;;;;;;;13.60;12.20;;;;;;;10.99;63.35;98824.27;1642509;87;21658;-62
2021/04/20 04:30:02;;;;;;;13.32;12.03;;;;;;;11.16;62.60;98823.39;1673289;85;21152;-62
2021/04/20 04:32:29;;;;;;;13.45;12.15;;;;;;;11.29;61.99;98826.16;1643162;87;21394;-62
2021/04/20 04:34:57;;;;;;;13.35;12.00;;;;;;;11.38;61.01;98822.61;1673178;84;21125;-62
2021/04/20 04:37:24;;;;;;;13.80;12.45;;;;;;;11.42;60.43;98819.80;1673232;85;21092;-62
2021/04/20 04:39:52;;;;;;;15.18;12.68;;;;;;;11.43;60.48;98824.94;1643101;87;21211;-62
2021/04/20 04:42:20;;;;;;;15.55;11.78;;;;;;;11.43;60.63;98819.72;1655426;85;21096;-62
2021/04/20 04:44:47;;;;;;;14.55;13.03;;;;;;;11.50;60.48;98826.28;1650669;87;21502;-62
2021/04/20 04:47:15;;;;;;;13.53;12.13;;;;;;;11.59;59.97;98823.64;1688475;84;21157;-62
2021/04/20 04:49:43;;;;;;;12.73;11.53;;;;;;;11.65;59.18;98816.77;1688476;83;21138;-62
2021/04/20 04:52:13;;;;;;;14.55;13.13;;;;;;;11.59;59.02;98820.55;1688451;84;21193;-62
2021/04/20 04:54:44;;;;;;;14.07;12.68;;;;;;;11.52;59.55;98823.59;1650703;87;21100;-62
2021/04/20 04:57:12;;;;;;;13.68;12.28;;;;;;;11.51;59.81;98823.22;1655822;84;22319;-62
2021/04/20 04:59:41;;;;;;;13.88;12.47;;;;;;;11.52;59.09;98817.09;1662691;85;21107;-62
2021/04/20 05:02:11;;;;;;;14.63;13.10;;;;;;;11.44;59.30;98814.05;1683013;84;21157;-62
2021/04/20 05:04:39;;;;;;;13.70;12.40;;;;;;;11.26;59.32;98814.14;1678101;85;21091;-61
2021/04/20 05:07:07;;;;;;;12.90;11.60;;;;;;;11.07;60.09;98811.33;1704831;84;21050;-61
2021/04/20 05:09:35;;;;;;;17.82;12.75;;;;;;;10.95;60.36;98813.67;1675181;84;21208;-63
2021/04/20 05:12:07;;;;;;;13.40;12.13;;;;;;;10.84;60.95;98806.88;1696674;84;21558;-61
2021/04/20 05:14:35;;;;;;;12.93;11.73;;;;;;;10.73;61.27;98808.38;1651209;84;21579;-61
2021/04/20 05:17:04;;;;;;;14.23;12.82;;;;;;;10.55;62.19;98812.78;1651710;85;21184;-62
2021/04/20 05:19:33;;;;;;;13.45;12.15;;;;;;;10.35;62.63;98811.20;1688473;83;21180;-64
2021/04/20 05:22:01;;;;;;;14.10;12.70;;;;;;;10.20;63.57;98807.60;1691780;83;21346;-63
2021/04/20 05:24:29;;;;;;;13.72;12.18;;;;;;;10.12;63.95;98804.53;1698915;83;21184;-62
2021/04/20 05:26:58;;;;;;;13.38;12.07;;;;;;;10.07;64.70;98805.22;1654096;85;21084;-61
2021/04/20 05:29:26;;;;;;;14.03;12.63;;;;;;;10.08;64.89;98799.56;1704391;83;21069;-62
2021/04/20 05:31:55;;;;;;;17.25;13.28;;;;;;;10.12;64.70;98798.04;1678083;85;21150;-61
2021/04/20 05:34:22;;;;;;;14.20;12.53;;;;;;;10.21;64.92;98795.45;1704744;84;21216;-62
2021/04/20 05:36:50;;;;;;;13.20;11.80;;;;;;;10.31;64.88;98785.83;1678100;85;21094;-62
2021/04/20 05:39:18;;;;;;;13.80;12.45;;;;;;;10.46;64.49;98796.34;1704729;84;21099;-62
2021/04/20 05:41:45;;;;;;;13.62;12.33;;;;;;;10.55;64.45;98790.22;1686814;83;22271;-63
2021/04/20 05:44:15;;;;;;;14.87;13.45;;;;;;;10.57;63.72;98793.59;1700155;83;21163;-61
2021/04/20 05:46:48;;;;;;;13.38;12.07;;;;;;;10.52;63.81;98793.44;1680433;84;21268;-61
2021/04/20 05:49:18;;;;;;;13.83;12.43;;;;;;;10.43;64.23;98792.59;1694780;84;21610;-62
2021/04/20 05:51:46;;;;;;;14.00;12.43;;;;;;;10.34;64.46;98793.93;1699554;84;21159;-62
2021/04/20 05:54:15;;;;;;;13.50;12.20;;;;;;;10.25;65.03;98787.42;1697269;84;21256;-62
2021/04/20 05:56:42;;;;;;;11.95;10.85;;;;;;;10.27;65.16;98789.49;1672113;85;21147;-61
2021/04/20 05:59:14;;;;;;;16.25;11.88;;;;;;;10.22;65.01;98790.17;1682225;84;22141;-62
2021/04/20 06:01:41;;;;;;;13.45;12.15;;;;;;;10.17;65.27;98788.72;1699566;84;21940;-63
2021/04/20 06:04:10;;;;;;;13.53;12.13;;;;;;;10.14;65.71;98784.52;1699956;84;21092;-61
2021/04/20 06:06:39;;;;;;;13.53;12.28;;;;;;;10.19;65.85;98787.73;1688884;84;21024;-63
2021/04/20 06:09:09;;;;;;;14.07;12.68;;;;;;;10.23;66.25;98789.27;1672165;85;21508;-62
2021/04/20 06:11:39;;;;;;;14.60;13.08;;;;;;;10.24;66.02;98785.75;1689544;84;21456;-62
2021/04/20 06:14:07;;;;;;;15.93;14.30;;;;;;;10.14;66.02;98782.37;1699987;84;21210;-62
2021/04/20 06:16:36;;;;;;;13.35;11.95;;;;;;;10.02;66.26;98779.45;1699405;84;21084;-62
2021/04/20 06:19:06;;;;;;;13.48;12.13;;;;;;;9.93;66.21;98782.98;1700137;84;21176;-61
2021/04/20 06:21:36;;;;;;;14.33;12.90;;;;;;;9.89;66.63;98779.70;1685436;83;21693;-62
2021/04/20 06:24:08;;;;;;;14.13;12.73;;;;;;;9.88;66.71;98781.07;1679488;84;21259;-62
2021/04/20 06:26:36;;;;;;;11.68;10.55;;;;;;;9.85;66.59;98775.56;1695637;84;21171;-61
2021/04/20 06:29:05;;;;;;;11.38;10.13;;;;;;;9.80;66.21;98773.64;1672007;84;21155;-62
2021/04/20 06:31:36;;;;;;;11.68;10.45;;;;;;;9.71;66.25;98775.87;1671731;84;21171;-62
2021/04/20 06:34:04;;;;;;;13.15;10.90;;;;;;;9.62;65.92;98772.80;1692196;84;21702;-60
2021/04/20 06:36:31;;;;;;;10.93;9.83;;;;;;;9.59;65.87;98774.23;1671979;84;21527;-62
2021/04/20 06:38:59;;;;;;;12.20;9.83;;;;;;;9.61;65.71;98776.76;1674337;84;21108;-61
2021/04/20 06:41:28;;;;;;;11.70;10.50;;;;;;;9.65;64.98;98771.34;1699982;83;21600;-61
2021/04/20 06:44:02;;;;;;;11.30;10.20;;;;;;;9.73;65.38;98767.09;1700151;84;21085;-62
2021/04/20 06:46:41;;;;;;;13.78;11.50;;;;;;;9.83;64.92;98773.50;1700353;84;21148;-61
2021/04/20 06:49:20;;;;;;;12.78;11.20;;;;;;;10.02;64.32;98766.92;1700162;84;21533;-61
2021/04/20 06:51:54;;;;;;;11.35;10.25;;;;;;;10.28;64.14;98763.88;1686817;84;21183;-61
2021/04/20 06:54:29;;;;;;;12.85;11.57;;;;;;;10.51;61.33;98764.45;1698957;84;21648;-63
2021/04/20 06:57:14;;;;;;;16.23;12.15;;;;;;;10.67;61.48;98766.63;1678470;84;21821;-63
2021/04/20 07:00:04;;;;;;;11.93;10.75;;;;;;;10.86;61.63;98753.47;1696517;83;21089;-62
2021/04/20 07:02:57;;;;;;;13.15;11.22;;;;;;;11.14;60.41;98745.85;1700255;84;22104;-61
2021/04/20 07:05:48;;;;;;;13.13;11.57;;;;;;;11.44;59.12;98747.66;1698480;84;21168;-61
2021/04/20 07:08:25;;;;;;;11.78;10.78;;;;;;;11.66;58.46;98742.45;1671976;85;21179;-63
2021/04/20 07:13:37;;;;;;;10.90;9.50;;;;;;;12.01;56.37;98742.19;1872806;75;22167;-63
2021/04/20 07:16:44;;;;;;;17.20;10.25;;;;;;;12.15;55.75;98739.63;1841491;77;20990;-63
2021/04/20 07:19:46;;;;;;;12.70;9.05;;;;;;;12.31;55.33;98731.27;1841240;78;21586;-61
2021/04/20 07:22:57;;;;;;;9.00;8.10;;;;;;;12.43;54.22;98733.58;1826520;78;21132;-64
2021/04/20 07:25:51;;;;;;;9.85;8.85;;;;;;;12.52;53.49;98732.20;1807191;78;21184;-63
2021/04/20 07:28:47;;;;;;;12.28;11.03;;;;;;;12.35;54.63;98735.83;1808453;79;21060;-62
2021/04/20 07:31:36;;;;;;;11.85;10.63;;;;;;;12.21;55.84;98733.19;1808411;79;21122;-63
2021/04/20 07:34:26;;;;;;;11.12;10.03;;;;;;;12.00;56.12;98732.23;1761197;79;22147;-61
2021/04/20 07:37:21;;;;;;;12.45;9.98;;;;;;;11.81;56.66;98725.58;1808420;78;21576;-61
2021/04/20 07:40:01;;;;;;;10.88;9.78;;;;;;;11.64;57.48;98718.25;1808411;78;21112;-65
2021/04/20 07:43:00;;;;;;;12.20;9.08;;;;;;;11.48;57.94;98732.24;1808171;79;21077;-62
2021/04/20 07:45:53;;;;;;;11.80;10.08;;;;;;;11.37;57.43;98727.66;1799768;79;20989;-64
2021/04/20 07:48:44;;;;;;;11.03;9.78;;;;;;;11.24;57.95;98728.79;1808560;79;21545;-62
2021/04/20 07:51:39;;;;;;;12.30;10.20;;;;;;;11.05;57.85;98726.83;1808290;79;21120;-62
2021/04/20 07:54:26;;;;;;;11.48;10.28;;;;;;;10.88;58.74;98719.95;1808431;79;21573;-62
2021/04/20 07:57:02;;;;;;;11.90;10.70;;;;;;;10.74;59.91;98718.57;1807498;78;21654;-61
2021/04/20 07:59:44;;;;;;;11.35;10.25;;;;;;;10.60;62.29;98724.95;1808149;78;21156;-63
2021/04/20 08:02:39;;;;;;;11.03;10.03;;;;;;;10.38;63.31;98724.44;1782325;79;21183;-61
2021/04/20 08:05:29;;;;;;;10.93;9.93;;;;;;;10.20;63.61;98719.70;1808341;78;21120;-63
2021/04/20 08:08:21;;;;;;;12.43;10.43;;;;;;;10.05;64.14;98717.41;1808107;79;21508;-62
2021/04/20 08:11:17;;;;;;;10.13;9.13;;;;;;;9.97;64.74;98717.82;1807094;78;21062;-63
2021/04/20 08:14:25;;;;;;;10.23;9.28;;;;;;;9.97;65.00;98715.69;1813103;78;21132;-63
2021/04/20 08:17:06;;;;;;;9.98;8.90;;;;;;;9.98;64.94;98713.02;1810298;79;22122;-61
2021/04/20 08:19:46;;;;;;;9.63;8.60;;;;;;;10.02;64.85;98705.87;1801836;78;21116;-64
2021/04/20 08:22:15;;;;;;;11.10;8.65;;;;;;;10.06;64.24;98708.70;1787516;79;21140;-62
2021/04/20 08:25:08;;;;;;;10.58;9.58;;;;;;;10.11;64.60;98705.41;1812663;79;21238;-63
2021/04/20 08:27:54;;;;;;;10.98;9.90;;;;;;;10.15;64.54;98706.10;1812793;79;21120;-62
2021/04/20 08:30:47;;;;;;;9.35;8.45;;;;;;;10.20;64.55;98693.26;1813456;78;21612;-62
2021/04/20 08:33:25;;;;;;;12.70;10.95;;;;;;;10.32;64.49;98691.34;1813460;79;21141;-62
2021/04/20 08:35:55;;;;;;;10.72;9.70;;;;;;;10.45;64.01;98682.87;1813528;79;21600;-61
2021/04/20 08:38:59;;;;;;;10.98;9.15;;;;;;;10.60;63.43;98689.84;1813519;79;21533;-61
2021/04/20 08:41:34;;;;;;;9.33;8.50;;;;;;;10.70;61.30;98694.94;1813604;79;21113;-62
2021/04/20 08:44:30;;;;;;;9.70;8.80;;;;;;;10.80;60.42;98686.16;1813339;79;21380;-62
2021/04/20 08:47:25;;;;;;;9.20;8.30;;;;;;;10.91;59.82;98688.57;1813156;79;21084;-63
2021/04/20 08:50:15;;;;;;;10.38;8.80;;;;;;;11.07;59.48;98686.41;1805332;79;21006;-61
2021/04/20 08:53:34;;;;;;;9.75;8.75;;;;;;;11.26;58.65;98680.55;1806690;78;21176;-63
2021/04/20 08:56:33;;;;;;;9.48;8.65;;;;;;;11.39;58.02;98681.05;1794401;79;21065;-64
2021/04/20 08:59:24;;;;;;;9.25;8.20;;;;;;;11.50;57.58;98679.61;1805432;79;21524;-63
2021/04/20 09:02:03;;;;;;;7.95;7.15;;;;;;;11.59;57.41;98678.60;1813519;79;21164;-62
2021/04/20 09:05:19;;;;;;;8.20;7.40;;;;;;;11.68;55.74;98684.59;1805988;79;21089;-63
2021/04/20 09:08:20;;;;;;;8.50;7.72;;;;;;;11.68;55.38;98666.82;1795870;79;21120;-63
2021/04/20 09:10:56;;;;;;;8.65;7.85;;;;;;;11.71;55.88;98674.00;1812298;79;21132;-62
2021/04/20 09:13:27;;;;;;;8.68;7.78;;;;;;;11.79;55.95;98671.45;1808631;79;21411;-62
2021/04/20 09:16:02;;;;;;;7.87;7.10;;;;;;;11.90;55.75;98672.94;1804783;78;21474;-64
2021/04/20 09:18:41;;;;;;;8.13;7.42;;;;;;;12.03;54.80;98667.36;1803301;78;21189;-62
2021/04/20 09:21:47;;;;;;;7.58;6.87;;;;;;;12.17;52.98;98668.69;1807387;79;21045;-62
2021/04/20 09:24:22;;;;;;;7.95;7.25;;;;;;;12.22;53.88;98669.69;1807833;78;21561;-62
2021/04/20 09:27:09;;;;;;;7.58;6.87;;;;;;;12.21;54.29;98662.34;1804600;78;21278;-62
2021/04/20 09:29:50;;;;;;;8.68;7.37;;;;;;;12.23;54.31;98659.64;1792298;78;21112;-62
2021/04/20 09:32:23;;;;;;;9.35;8.28;;;;;;;12.23;54.57;98655.73;1806780;78;21176;-63
2021/04/20 09:34:51;;;;;;;8.48;7.78;;;;;;;12.22;54.89;98654.89;1791585;79;21045;-62
2021/04/20 09:37:28;;;;;;;9.68;8.40;;;;;;;12.25;54.67;98653.87;1776719;80;21046;-62
2021/04/20 09:40:07;;;;;;;9.15;7.53;;;;;;;12.28;54.54;98651.08;1778484;79;22948;-62
2021/04/20 09:42:35;;;;;;;8.10;7.35;;;;;;;12.37;54.40;98650.53;1791146;79;21133;-62
2021/04/20 09:45:24;;;;;;;7.67;6.97;;;;;;;12.44;53.50;98645.28;1791083;79;21168;-61
2021/04/20 09:48:18;;;;;;;5.78;4.65;;;;;;;12.52;52.51;98644.81;1784380;79;21167;-63
2021/04/20 09:51:05;;;;;;;5.85;5.35;;;;;;;12.63;49.89;98642.36;1790003;79;21105;-62
2021/04/20 09:53:56;;;;;;;5.42;4.92;;;;;;;12.78;51.27;98639.27;1788081;79;21207;-62
2021/04/20 09:56:37;;;;;;;5.67;5.17;;;;;;;12.85;47.43;98630.10;1776164;79;21112;-62
2021/04/20 09:59:31;;;;;;;10.75;5.28;;;;;;;12.83;47.82;98631.50;1780010;79;21164;-62
2021/04/20 10:02:30;;;;;;;5.87;5.25;;;;;;;12.79;47.75;98628.71;1789909;78;21056;-63
2021/04/20 10:05:15;;;;;;;5.08;4.60;;;;;;;12.80;47.35;98628.24;1775920;80;21080;-62
2021/04/20 10:08:05;;;;;;;6.33;5.15;;;;;;;12.79;46.51;98622.69;1785714;79;21195;-64
2021/04/20 10:10:53;;;;;;;5.30;4.90;;;;;;;12.80;47.31;98620.41;1807791;79;21148;-62
2021/04/20 10:13:51;;;;;;;6.60;4.95;;;;;;;12.79;47.47;98619.58;1810184;79;21045;-62
2021/04/20 10:16:41;;;;;;;12.73;5.20;;;;;;;12.81;46.50;98610.34;1733198;80;21106;-64
2021/04/20 10:19:23;;;;;;;4.75;4.12;;;;;;;12.79;45.72;98611.75;1755468;81;21543;-64
2021/04/20 10:22:15;;;;;;;5.80;3.70;;;;;;;12.73;45.45;98611.70;1749436;80;21210;-62
2021/04/20 10:24:50;;;;;;;4.20;3.27;;;;;;;12.70;44.20;98615.80;1742940;81;21490;-62
2021/04/20 10:27:20;;;;;;;4.30;3.90;;;;;;;12.61;44.82;98611.16;1737485;81;21804;-62
2021/04/20 10:30:11;;;;;;;5.30;4.22;;;;;;;12.56;44.71;98615.01;1733584;81;21165;-62
2021/04/20 10:32:51;;;;;;;7.55;6.47;;;;;;;12.51;45.43;98607.94;1740247;80;21077;-61
2021/04/20 10:35:24;;;;;;;7.83;7.03;;;;;;;12.51;49.34;98609.23;1715954;80;21369;-62
2021/04/20 10:37:54;;;;;;;5.78;5.28;;;;;;;12.55;50.18;98616.78;1755728;81;21487;-62
2021/04/20 10:40:32;;;;;;;8.25;7.30;;;;;;;12.56;47.63;98613.70;1755765;81;21205;-63
2021/04/20 10:43:16;;;;;;;11.33;7.80;;;;;;;12.57;49.09;98614.91;1756086;81;21078;-63
2021/04/20 10:45:44;;;;;;;7.87;7.12;;;;;;;12.58;49.83;98608.77;1756022;81;21203;-62
2021/04/20 10:48:21;;;;;;;7.67;6.97;;;;;;;12.58;50.20;98606.63;1756000;81;21370;-62
2021/04/20 10:50:50;;;;;;;7.17;6.58;;;;;;;12.58;50.26;98616.59;1729492;81;21090;-61
2021/04/20 10:53:29;;;;;;;10.70;7.45;;;;;;;12.56;50.92;98619.76;1756004;81;21090;-62
2021/04/20 10:56:05;;;;;;;8.68;7.22;;;;;;;12.54;51.56;98618.17;1755836;80;21139;-62
2021/04/20 10:58:32;;;;;;;8.78;7.97;;;;;;;12.42;52.32;98617.99;1756191;81;21141;-62
2021/04/20 11:01:00;;;;;;;8.55;7.78;;;;;;;12.33;53.19;98615.14;1756051;81;21367;-63
2021/04/20 11:03:35;;;;;;;7.30;6.65;;;;;;;12.34;53.45;98609.83;1755933;81;21079;-63
2021/04/20 11:06:03;;;;;;;7.83;7.12;;;;;;;12.32;52.23;98614.77;1756044;81;21606;-62
2021/04/20 11:08:48;;;;;;;8.55;7.60;;;;;;;12.28;51.98;98612.81;1748046;81;21046;-62
2021/04/20 11:11:20;;;;;;;8.20;7.42;;;;;;;12.30;52.29;98605.73;1752107;81;21545;-62
2021/04/20 11:13:48;;;;;;;;;;;;;;;12.44;51.93;98607.47;1759444;81;21234;-62
2021/04/20 11:16:27;;;;;;;6.40;5.80;;;;;;;12.57;50.43;98607.09;1751122;81;20226;-64
2021/04/20 11:19:06;;;;;;;7.67;6.30;;;;;;;12.64;49.74;98598.39;1754681;81;21125;-64
2021/04/20 11:21:37;;;;;;;9.08;6.35;;;;;;;12.72;49.14;98594.37;1747253;80;21526;-65
2021/04/20 11:24:20;;;;;;;19.55;16.77;;;;;;;12.82;48.47;98595.91;1745613;81;21125;-62
2021/04/20 11:26:59;;;;;;;18.20;14.50;;;;;;;12.90;47.76;98584.52;1729435;83;21263;-62
2021/04/20 11:29:43;;;;;;;6.12;5.53;;;;;;;13.04;47.68;98590.13;1753623;81;21128;-63
2021/04/20 11:32:17;;;;;;;4.58;4.10;;;;;;;13.15;44.83;98595.97;1759493;81;21071;-63
2021/04/20 11:34:45;;;;;;;4.85;4.35;;;;;;;13.17;45.11;98581.91;1734735;81;21158;-62
2021/04/20 11:37:15;;;;;;;5.75;5.17;;;;;;;13.18;44.64;98586.20;1756198;80;21161;-63
2021/04/20 11:39:53;;;;;;;7.60;5.97;;;;;;;13.18;44.82;98581.45;1720553;81;21368;-63
2021/04/20 11:42:27;;;;;;;9.35;5.75;;;;;;;13.16;45.90;98582.84;1754576;81;21121;-63
2021/04/20 11:44:59;;;;;;;6.67;5.28;;;;;;;13.23;46.16;98581.95;1740155;80;21124;-62
2021/04/20 11:47:29;;;;;;;6.47;5.10;;;;;;;13.29;45.79;98575.86;1740002;81;21141;-63
2021/04/20 11:50:10;;;;;;;6.22;5.62;;;;;;;13.32;46.77;98580.05;1747300;81;21537;-63
2021/04/20 11:52:41;;;;;;;6.22;5.53;;;;;;;13.34;47.15;98574.27;1732868;81;22099;-63
2021/04/20 11:55:12;;;;;;;5.95;5.45;;;;;;;13.32;47.20;98569.61;1745361;81;22185;-63
2021/04/20 11:57:39;;;;;;;7.90;6.40;;;;;;;13.28;47.42;98565.05;1748312;81;21193;-62
2021/04/20 12:00:09;;;;;;;6.35;5.30;;;;;;;13.25;47.66;98580.08;1735121;81;21225;-63
2021/04/20 12:02:38;;;;;;;7.80;6.10;;;;;;;13.19;48.00;98569.56;1731112;81;21161;-62
2021/04/20 12:05:14;;;;;;;7.40;6.70;;;;;;;13.08;48.07;98570.73;1729002;82;21368;-62